Time;durP1;ratioP1;P1;durP2;ratioP2;P2;SDS_P1;SDS_P2;PMS_P1;PMS_P2;Temp;Humidity;BMP_temperature;BMP_pressure;BME280_temperature;BME280_humidity;BME280_pressure;Samples;Min_cycle;Max_cycle;Signal;HPM_P1;HPM_P2
2022/05/17 00:01:18;;;;;;;32.75;17.05;;;15.10;99.90;;;;;;5028896;28;20095;-60
2022/05/17 00:03:44;;;;;;;33.42;15.95;;;15.10;99.90;;;;;;5028841;28;20038;-60
2022/05/17 00:06:10;;;;;;;30.67;17.20;;;15.00;99.90;;;;;;5028495;28;20052;-61
2022/05/17 00:08:36;;;;;;;31.55;17.08;;;15.00;99.90;;;;;;5030242;28;20052;-60
2022/05/17 00:11:02;;;;;;;30.77;14.93;;;14.90;99.90;;;;;;5028245;28;20056;-62
2022/05/17 00:13:28;;;;;;;32.25;15.60;;;14.80;99.90;;;;;;5028271;28;20427;-61
2022/05/17 00:15:55;;;;;;;29.15;14.80;;;14.80;99.90;;;;;;5028522;28;20037;-61
2022/05/17 00:18:22;;;;;;;28.48;15.23;;;14.70;99.90;;;;;;5029724;28;20045;-61
2022/05/17 00:20:48;;;;;;;33.10;14.52;;;14.70;99.90;;;;;;5029335;28;20037;-60
2022/05/17 00:23:17;;;;;;;30.95;15.10;;;14.80;99.90;;;;;;5011778;28;20059;-60
2022/05/17 00:25:47;;;;;;;29.73;14.90;;;14.70;99.90;;;;;;5027640;28;20516;-60
2022/05/17 00:28:19;;;;;;;28.02;14.32;;;14.60;99.90;;;;;;5061231;28;20053;-60
2022/05/17 00:30:46;;;;;;;29.13;14.95;;;14.50;99.90;;;;;;5044718;28;20081;-60
2022/05/17 00:33:12;;;;;;;31.15;15.45;;;14.50;99.90;;;;;;5029214;28;20060;-60
2022/05/17 00:35:38;;;;;;;31.80;14.70;;;14.50;99.90;;;;;;5028115;28;20056;-61
2022/05/17 00:38:04;;;;;;;29.25;13.77;;;14.50;99.90;;;;;;5061636;28;20041;-60
2022/05/17 00:40:30;;;;;;;29.77;13.45;;;14.50;99.90;;;;;;5028001;28;20077;-60
2022/05/17 00:42:55;;;;;;;31.50;13.82;;;14.40;99.90;;;;;;5027905;28;20095;-60
2022/05/17 00:45:21;;;;;;;36.40;14.77;;;14.30;99.90;;;;;;5027639;28;20041;-60
2022/05/17 00:48:04;;;;;;;29.40;13.45;;;14.30;99.90;;;;;;5027962;28;20037;-60
2022/05/17 00:50:43;;;;;;;33.28;14.55;;;14.30;99.90;;;;;;5028068;28;20567;-61
2022/05/17 00:53:18;;;;;;;34.60;14.75;;;14.10;99.90;;;;;;5027943;28;20608;-60
2022/05/17 00:55:56;;;;;;;30.05;13.98;;;14.10;99.90;;;;;;5010974;28;20045;-60
2022/05/17 00:58:43;;;;;;;30.48;14.25;;;14.10;99.90;;;;;;5061270;28;20403;-60
2022/05/17 01:01:13;;;;;;;30.10;14.80;;;14.00;99.90;;;;;;5011325;28;20146;-60
2022/05/17 01:03:57;;;;;;;32.97;14.93;;;14.00;99.90;;;;;;5028869;28;20049;-60
2022/05/17 01:06:27;;;;;;;32.47;14.00;;;14.00;99.90;;;;;;5027733;28;20085;-61
2022/05/17 01:08:53;;;;;;;34.60;14.18;;;14.00;99.90;;;;;;5027930;28;20466;-60
2022/05/17 01:11:19;;;;;;;27.67;14.25;;;13.90;99.90;;;;;;5027175;28;20526;-60
2022/05/17 01:16:30;;;;;;;29.98;12.93;;;14.00;99.90;;;;;;5027748;28;20454;-60
2022/05/17 01:18:56;;;;;;;27.90;12.00;;;14.00;99.90;;;;;;5027618;28;20056;-60
2022/05/17 01:21:22;;;;;;;31.30;13.45;;;14.00;99.90;;;;;;5011213;28;20480;-60
2022/05/17 01:23:48;;;;;;;30.80;11.57;;;14.00;99.90;;;;;;5028076;28;20052;-60
2022/05/17 01:26:23;;;;;;;25.90;11.20;;;14.00;99.90;;;;;;5027707;28;20551;-61
2022/05/17 01:28:49;;;;;;;34.15;11.68;;;13.90;99.90;;;;;;5027648;28;20045;-60
2022/05/17 01:31:16;;;;;;;31.05;10.98;;;13.90;99.90;;;;;;5027478;28;20041;-60
2022/05/17 01:33:41;;;;;;;28.02;11.35;;;13.90;99.90;;;;;;5027580;28;20053;-60
2022/05/17 01:36:09;;;;;;;28.45;11.05;;;13.90;99.90;;;;;;5027424;28;20042;-60
2022/05/17 01:38:36;;;;;;;26.95;10.27;;;13.90;99.90;;;;;;5030817;28;20038;-60
2022/05/17 01:41:03;;;;;;;27.73;10.10;;;13.80;99.90;;;;;;5030896;28;20095;-61
2022/05/17 01:43:28;;;;;;;28.27;10.65;;;13.90;99.90;;;;;;5030903;28;20060;-61
2022/05/17 01:45:55;;;;;;;24.98;10.60;;;13.90;99.90;;;;;;5030952;28;20053;-60
2022/05/17 01:48:21;;;;;;;24.05;9.80;;;13.90;99.90;;;;;;5014764;28;20052;-60
2022/05/17 01:50:46;;;;;;;26.92;10.27;;;13.80;99.90;;;;;;5031064;28;20042;-60
2022/05/17 01:53:13;;;;;;;27.77;11.07;;;13.80;99.90;;;;;;5047830;28;20050;-60
2022/05/17 01:55:38;;;;;;;29.30;10.45;;;13.80;99.90;;;;;;5030751;28;20128;-60
2022/05/17 01:58:05;;;;;;;30.17;10.40;;;13.70;99.90;;;;;;5030942;28;20088;-60
2022/05/17 02:00:31;;;;;;;24.45;10.23;;;13.70;99.90;;;;;;5032402;28;20042;-60
2022/05/17 02:02:58;;;;;;;27.88;10.82;;;13.80;99.90;;;;;;5032117;28;20045;-60
2022/05/17 02:05:26;;;;;;;33.38;11.35;;;13.80;99.90;;;;;;5063920;28;20079;-61
2022/05/17 02:07:52;;;;;;;31.33;12.05;;;13.70;99.90;;;;;;5030963;28;20042;-60
2022/05/17 02:10:19;;;;;;;25.80;10.55;;;13.70;99.90;;;;;;5047192;28;20044;-61
2022/05/17 02:12:45;;;;;;;29.65;11.90;;;13.60;99.90;;;;;;5032044;28;20131;-61
2022/05/17 02:15:11;;;;;;;30.73;12.60;;;13.60;99.90;;;;;;5014309;28;20117;-61
2022/05/17 02:17:38;;;;;;;33.88;12.13;;;13.60;99.90;;;;;;5014068;28;20507;-61
2022/05/17 02:20:06;;;;;;;32.20;12.98;;;13.60;99.90;;;;;;5030542;28;20069;-61
2022/05/17 02:22:32;;;;;;;29.10;12.52;;;13.50;99.90;;;;;;5030400;28;20293;-60
2022/05/17 02:24:57;;;;;;;32.00;13.15;;;13.50;99.90;;;;;;5047269;28;20381;-60
2022/05/17 02:27:23;;;;;;;33.70;13.20;;;13.40;99.90;;;;;;5047205;28;20056;-61
2022/05/17 02:29:49;;;;;;;32.33;14.30;;;13.40;99.90;;;;;;5014598;28;20142;-61
2022/05/17 02:32:15;;;;;;;30.58;14.10;;;13.30;99.90;;;;;;5030767;28;20046;-61
2022/05/17 02:34:41;;;;;;;30.88;13.23;;;13.30;99.90;;;;;;5030497;28;20045;-61
2022/05/17 02:37:07;;;;;;;33.25;14.00;;;13.30;99.90;;;;;;5030787;28;20423;-61
2022/05/17 02:39:34;;;;;;;35.28;14.40;;;13.30;99.90;;;;;;4997493;28;20041;-61
2022/05/17 02:42:00;;;;;;;39.95;14.32;;;13.30;99.90;;;;;;5014011;28;20056;-61
2022/05/17 02:44:27;;;;;;;35.85;14.95;;;13.20;99.90;;;;;;4997969;28;20088;-62
2022/05/17 02:46:52;;;;;;;37.55;15.43;;;13.20;99.90;;;;;;5031486;28;20483;-62
2022/05/17 02:49:18;;;;;;;30.33;14.38;;;13.10;99.90;;;;;;5012788;28;20132;-61
2022/05/17 02:51:46;;;;;;;33.90;15.02;;;13.10;99.90;;;;;;5030548;28;20553;-62
2022/05/17 02:54:12;;;;;;;34.78;16.60;;;13.10;99.90;;;;;;5030218;28;20498;-60
2022/05/17 02:56:38;;;;;;;33.10;15.13;;;13.10;99.90;;;;;;4980924;28;20049;-61
2022/05/17 02:59:04;;;;;;;40.38;16.48;;;13.10;99.90;;;;;;5031598;28;20088;-61
2022/05/17 03:01:30;;;;;;;29.02;15.57;;;13.10;99.90;;;;;;5029868;28;20068;-61
2022/05/17 03:03:56;;;;;;;33.85;15.77;;;13.10;99.90;;;;;;5013809;28;20067;-61
2022/05/17 03:06:22;;;;;;;38.70;16.08;;;13.10;99.90;;;;;;5013512;28;20067;-61
2022/05/17 03:08:48;;;;;;;37.40;16.75;;;13.10;99.90;;;;;;5029889;28;20400;-60
2022/05/17 03:11:14;;;;;;;35.67;16.52;;;13.10;99.90;;;;;;5029512;28;20045;-60
2022/05/17 03:13:40;;;;;;;37.70;15.95;;;13.00;99.90;;;;;;5045971;28;20549;-61
2022/05/17 03:16:06;;;;;;;33.60;17.00;;;13.10;99.90;;;;;;5030101;28;20124;-61
2022/05/17 03:18:32;;;;;;;40.85;17.15;;;13.10;99.90;;;;;;5013159;28;20346;-60
2022/05/17 03:20:58;;;;;;;37.10;17.17;;;12.90;99.90;;;;;;5029714;28;20037;-61
2022/05/17 03:23:24;;;;;;;37.75;16.98;;;13.00;99.90;;;;;;5013066;28;20045;-61
2022/05/17 03:25:49;;;;;;;41.53;16.83;;;12.90;99.90;;;;;;5013026;28;20136;-61
2022/05/17 03:28:15;;;;;;;38.72;17.20;;;13.00;99.90;;;;;;5029400;28;20672;-61
2022/05/17 03:30:42;;;;;;;40.13;16.83;;;13.00;99.90;;;;;;5029509;28;20037;-61
2022/05/17 03:33:08;;;;;;;33.55;16.15;;;12.90;99.90;;;;;;5029052;28;20046;-61
2022/05/17 03:35:35;;;;;;;33.13;15.43;;;13.00;99.90;;;;;;5029338;28;20507;-61
2022/05/17 03:38:01;;;;;;;41.22;16.58;;;13.00;99.90;;;;;;5029367;28;20132;-61
2022/05/17 03:40:27;;;;;;;32.92;15.75;;;13.00;99.90;;;;;;5029263;28;20041;-61
2022/05/17 03:42:53;;;;;;;36.45;16.48;;;12.90;99.90;;;;;;5028980;28;20109;-61
2022/05/17 03:45:19;;;;;;;34.05;15.32;;;13.00;99.90;;;;;;5045655;28;20530;-61
2022/05/17 03:47:45;;;;;;;33.28;15.57;;;13.00;99.90;;;;;;5012676;28;20534;-61
2022/05/17 03:50:12;;;;;;;34.70;15.35;;;13.10;99.90;;;;;;5028883;28;20045;-59
2022/05/17 03:52:38;;;;;;;38.60;15.60;;;13.00;99.90;;;;;;5030718;28;20041;-59
2022/05/17 03:55:06;;;;;;;38.80;16.65;;;13.10;99.90;;;;;;5029219;28;20045;-61
2022/05/17 03:57:31;;;;;;;36.35;14.73;;;13.00;99.90;;;;;;5061560;28;20462;-60
2022/05/17 03:59:58;;;;;;;31.95;14.82;;;13.10;99.90;;;;;;5012364;28;20345;-60
2022/05/17 04:02:24;;;;;;;32.58;15.50;;;13.00;99.90;;;;;;5028600;28;20056;-60
2022/05/17 04:04:54;;;;;;;40.30;15.40;;;13.10;99.90;;;;;;5028460;28;20136;-60
2022/05/17 04:07:21;;;;;;;32.90;14.60;;;13.10;99.90;;;;;;5028549;28;20345;-61
2022/05/17 04:09:47;;;;;;;31.33;14.85;;;13.10;99.90;;;;;;5028498;28;20057;-61
2022/05/17 04:12:13;;;;;;;39.33;15.65;;;13.10;99.90;;;;;;5011899;28;20056;-61
2022/05/17 04:14:39;;;;;;;28.63;14.45;;;13.10;99.90;;;;;;5028286;28;20100;-61
2022/05/17 04:17:06;;;;;;;33.00;14.57;;;13.10;99.90;;;;;;5028662;28;20355;-61
2022/05/17 04:19:32;;;;;;;27.67;14.90;;;13.10;99.90;;;;;;5061364;28;20041;-60
2022/05/17 04:22:01;;;;;;;31.98;14.38;;;13.10;99.90;;;;;;5028807;28;20036;-60
2022/05/17 04:24:26;;;;;;;31.80;13.90;;;13.10;99.90;;;;;;5012155;28;20041;-60
2022/05/17 04:26:53;;;;;;;31.60;14.23;;;13.10;99.90;;;;;;5028331;28;20099;-61
2022/05/17 04:29:19;;;;;;;30.38;13.77;;;13.20;99.90;;;;;;5027986;28;20488;-61
2022/05/17 04:31:46;;;;;;;30.08;12.52;;;13.20;99.90;;;;;;5044999;28;20048;-61
2022/05/17 04:34:12;;;;;;;32.47;13.25;;;13.20;99.90;;;;;;5028148;28;20041;-60
2022/05/17 04:36:39;;;;;;;34.72;13.10;;;13.20;99.90;;;;;;5028138;28;20061;-61
2022/05/17 04:39:05;;;;;;;30.98;12.68;;;13.40;99.90;;;;;;5061624;28;20076;-61
2022/05/17 04:41:30;;;;;;;30.90;12.48;;;13.40;99.90;;;;;;5011743;28;20041;-61
2022/05/17 04:43:56;;;;;;;28.00;11.10;;;13.40;99.90;;;;;;5028182;28;20037;-60
2022/05/17 04:46:22;;;;;;;28.27;12.27;;;13.50;99.90;;;;;;5028196;28;20084;-61
2022/05/17 04:48:47;;;;;;;31.95;11.70;;;13.50;99.90;;;;;;4995535;28;20053;-61
2022/05/17 04:51:14;;;;;;;25.95;11.07;;;13.50;99.90;;;;;;5011346;28;20480;-61
2022/05/17 04:53:41;;;;;;;24.88;11.18;;;13.60;99.90;;;;;;5061126;28;20049;-61
2022/05/17 04:56:08;;;;;;;19.95;9.93;;;13.70;99.90;;;;;;5044452;28;20057;-61
2022/05/17 04:58:35;;;;;;;26.33;10.45;;;13.80;99.90;;;;;;5061245;28;20124;-61
2022/05/17 05:01:02;;;;;;;27.08;9.73;;;13.90;99.90;;;;;;5011858;28;20064;-61
2022/05/17 05:03:28;;;;;;;25.42;10.13;;;14.00;99.90;;;;;;5060921;28;20116;-61
2022/05/17 05:05:54;;;;;;;27.77;9.90;;;14.00;99.90;;;;;;5027953;28;20293;-60
2022/05/17 05:08:21;;;;;;;24.02;9.63;;;14.10;99.90;;;;;;5027940;28;20068;-61
2022/05/17 05:10:47;;;;;;;20.50;8.98;;;14.20;99.90;;;;;;5061010;28;20071;-61
2022/05/17 05:13:19;;;;;;;22.70;9.57;;;14.30;99.90;;;;;;5062848;28;20041;-61
2022/05/17 05:15:45;;;;;;;21.92;9.18;;;14.40;99.90;;;;;;5031921;28;20041;-61
2022/05/17 05:18:40;;;;;;;21.63;8.82;;;14.40;99.90;;;;;;5032128;28;20403;-62
2022/05/17 05:21:09;;;;;;;18.42;7.80;;;14.60;99.90;;;;;;5028460;28;20056;-61
2022/05/17 05:23:36;;;;;;;21.20;8.73;;;14.60;99.90;;;;;;5031880;28;20057;-61
2022/05/17 05:26:02;;;;;;;22.73;8.15;;;14.80;99.90;;;;;;5064880;28;20202;-61
2022/05/17 05:28:28;;;;;;;23.88;7.30;;;15.10;99.90;;;;;;5048431;28;20141;-62
2022/05/17 05:30:55;;;;;;;14.98;5.97;;;15.30;99.90;;;;;;5032886;28;20096;-62
2022/05/17 05:33:22;;;;;;;20.15;6.25;;;15.60;99.90;;;;;;5047657;28;20049;-60
2022/05/17 05:35:47;;;;;;;16.23;6.43;;;15.80;99.90;;;;;;5048335;28;20037;-61
2022/05/17 05:38:14;;;;;;;15.65;6.00;;;15.90;99.90;;;;;;5031545;28;20034;-61
2022/05/17 05:40:41;;;;;;;21.15;6.10;;;15.90;99.90;;;;;;4998543;28;20124;-61
2022/05/17 05:43:07;;;;;;;16.67;5.97;;;16.00;99.90;;;;;;5031297;28;20045;-62
2022/05/17 05:45:34;;;;;;;14.48;5.35;;;16.20;99.90;;;;;;5032601;28;20041;-62
2022/05/17 05:48:00;;;;;;;17.83;5.78;;;16.20;99.90;;;;;;5015090;28;20514;-62
2022/05/17 05:50:26;;;;;;;18.70;5.57;;;16.30;99.90;;;;;;5032707;28;20041;-62
2022/05/17 05:53:04;;;;;;;20.05;5.28;;;16.20;99.90;;;;;;5031325;28;20102;-61
2022/05/17 05:55:31;;;;;;;14.65;5.30;;;16.30;99.90;;;;;;5064237;28;20049;-61
2022/05/17 05:57:57;;;;;;;15.10;5.53;;;16.20;99.90;;;;;;5064435;28;20057;-61
2022/05/17 06:00:23;;;;;;;15.65;5.15;;;16.20;99.90;;;;;;5032271;28;20415;-61
2022/05/17 06:02:49;;;;;;;17.75;5.50;;;16.20;99.90;;;;;;5031048;28;20046;-62
2022/05/17 06:05:15;;;;;;;18.60;5.75;;;16.40;99.90;;;;;;5030968;28;20139;-60
2022/05/17 06:07:41;;;;;;;17.52;5.07;;;16.70;99.90;;;;;;5031022;28;20095;-61
2022/05/17 06:10:08;;;;;;;12.55;4.40;;;16.90;99.90;;;;;;5030988;28;20045;-61
2022/05/17 06:12:34;;;;;;;19.08;5.18;;;17.10;99.90;;;;;;5063790;28;20170;-61
2022/05/17 06:15:00;;;;;;;16.20;4.85;;;17.20;99.90;;;;;;5063971;28;20077;-61
2022/05/17 06:17:27;;;;;;;19.67;4.80;;;17.40;99.90;;;;;;5063688;28;20041;-60
2022/05/17 06:19:55;;;;;;;18.02;4.90;;;17.50;99.90;;;;;;5047607;28;20535;-61
2022/05/17 06:22:21;;;;;;;13.93;4.53;;;17.70;99.90;;;;;;5030325;28;20049;-61
2022/05/17 06:24:47;;;;;;;16.65;4.53;;;17.70;99.90;;;;;;5030327;28;20083;-61
2022/05/17 06:27:13;;;;;;;12.68;4.15;;;17.60;99.90;;;;;;5030344;28;20051;-60
2022/05/17 06:29:38;;;;;;;13.63;4.38;;;17.70;99.90;;;;;;5031538;28;20491;-61
2022/05/17 06:32:08;;;;;;;14.77;4.30;;;17.90;99.90;;;;;;5046826;28;20026;-60
2022/05/17 06:34:34;;;;;;;17.52;4.95;;;18.10;99.90;;;;;;5030104;28;20064;-61
2022/05/17 06:37:00;;;;;;;14.00;3.80;;;18.30;99.90;;;;;;5030188;28;20561;-61
2022/05/17 06:39:26;;;;;;;14.80;4.45;;;18.30;99.90;;;;;;5030042;28;20041;-61
2022/05/17 06:41:53;;;;;;;13.27;3.75;;;18.30;99.90;;;;;;5029876;28;20046;-61
2022/05/17 06:44:19;;;;;;;15.95;3.95;;;18.30;99.90;;;;;;5031488;28;20045;-61
2022/05/17 06:46:45;;;;;;;14.13;4.10;;;18.50;99.90;;;;;;5029986;28;20052;-62
2022/05/17 06:49:11;;;;;;;14.20;4.45;;;18.70;99.90;;;;;;5029870;28;20052;-62
2022/05/17 06:51:37;;;;;;;12.65;4.28;;;18.70;99.90;;;;;;5029461;28;20400;-61
2022/05/17 06:54:03;;;;;;;9.93;3.60;;;18.70;99.90;;;;;;5063412;28;20507;-62
2022/05/17 06:56:29;;;;;;;11.52;3.97;;;19.00;99.90;;;;;;5029615;28;20512;-62
2022/05/17 06:58:56;;;;;;;11.25;3.50;;;19.10;99.90;;;;;;5029754;28;20239;-62
2022/05/17 07:01:22;;;;;;;11.55;3.92;;;19.20;99.90;;;;;;5013342;28;20500;-60
2022/05/17 07:03:50;;;;;;;15.75;3.88;;;19.40;99.90;;;;;;5029889;28;20053;-61
2022/05/17 07:06:16;;;;;;;11.40;4.03;;;19.30;99.90;;;;;;5029848;28;20064;-61
2022/05/17 07:08:43;;;;;;;12.32;4.03;;;19.20;99.90;;;;;;5046611;28;20476;-61
2022/05/17 07:13:54;;;;;;;12.20;3.60;;;19.30;99.90;;;;;;5029399;28;20050;-61
2022/05/17 07:16:21;;;;;;;11.57;4.10;;;19.60;99.90;;;;;;5046261;28;20072;-61
2022/05/17 07:18:47;;;;;;;12.77;4.07;;;19.60;99.90;;;;;;5062979;28;20057;-61
2022/05/17 07:21:14;;;;;;;13.00;4.25;;;19.50;99.90;;;;;;5029497;28;20208;-61
2022/05/17 07:23:40;;;;;;;14.68;4.40;;;19.40;99.90;;;;;;5029299;28;20053;-61
2022/05/17 07:26:08;;;;;;;12.57;3.83;;;19.30;99.90;;;;;;5029325;28;20065;-61
2022/05/17 07:28:39;;;;;;;16.00;4.40;;;19.20;99.90;;;;;;5029227;28;20052;-61
2022/05/17 07:31:05;;;;;;;11.88;3.60;;;19.30;99.90;;;;;;5029335;28;20100;-61
2022/05/17 07:33:31;;;;;;;15.63;3.85;;;19.20;99.90;;;;;;5028875;28;20428;-61
2022/05/17 07:35:57;;;;;;;10.20;3.33;;;19.50;99.90;;;;;;5045307;28;20562;-61
2022/05/17 07:38:23;;;;;;;13.15;3.63;;;19.50;99.90;;;;;;5028915;28;20049;-61
2022/05/17 07:40:50;;;;;;;11.00;2.90;;;19.60;99.90;;;;;;5062602;28;20092;-61
2022/05/17 07:43:16;;;;;;;11.00;3.50;;;19.80;99.90;;;;;;5029193;28;20046;-62
2022/05/17 07:45:42;;;;;;;11.38;3.50;;;19.80;99.90;;;;;;5029369;28;20049;-61
2022/05/17 07:48:08;;;;;;;9.48;3.00;;;20.00;99.90;;;;;;5029070;28;20045;-62
2022/05/17 07:50:34;;;;;;;13.55;3.75;;;20.30;99.90;;;;;;5012693;28;20321;-61
2022/05/17 07:53:12;;;;;;;11.68;3.50;;;20.40;99.90;;;;;;5028975;28;20084;-61
2022/05/17 07:55:39;;;;;;;8.80;3.10;;;20.60;99.90;;;;;;5028629;28;20240;-61
2022/05/17 07:58:06;;;;;;;10.10;3.17;;;20.60;99.90;;;;;;5012101;28;20064;-61
2022/05/17 08:00:32;;;;;;;11.85;3.20;;;20.70;99.90;;;;;;5029058;28;20215;-61
2022/05/17 08:02:59;;;;;;;11.20;3.05;;;20.90;99.90;;;;;;5061908;28;20041;-61
2022/05/17 08:05:26;;;;;;;6.95;2.40;;;21.20;99.90;;;;;;5045199;28;20075;-61
2022/05/17 08:07:53;;;;;;;10.07;2.83;;;21.20;99.90;;;;;;5045339;28;20077;-61
2022/05/17 08:10:20;;;;;;;8.57;2.28;;;21.10;99.90;;;;;;5028848;28;20128;-61
2022/05/17 08:12:46;;;;;;;8.55;2.53;;;21.50;99.90;;;;;;5028597;28;20049;-61
2022/05/17 08:15:12;;;;;;;8.15;1.85;;;21.50;99.90;;;;;;5028571;28;20051;-61
2022/05/17 08:17:38;;;;;;;10.45;2.13;;;21.70;99.90;;;;;;5028187;28;20045;-60
2022/05/17 08:20:09;;;;;;;8.48;2.05;;;22.10;99.90;;;;;;5028296;28;20037;-61
2022/05/17 08:22:38;;;;;;;8.00;2.00;;;22.10;99.90;;;;;;5061919;28;20083;-62
2022/05/17 08:27:49;;;;;;;6.82;1.80;;;21.20;99.90;;;;;;5028744;28;20049;-62
2022/05/17 08:30:19;;;;;;;6.65;1.27;;;21.30;99.90;;;;;;5061320;28;20634;-61
2022/05/17 08:35:42;;;;;;;7.47;1.08;;;21.30;99.90;;;;;;5027996;28;20054;-61
2022/05/17 08:38:21;;;;;;;8.95;1.27;;;21.40;99.90;;;;;;5061538;28;20668;-61
2022/05/17 08:41:05;;;;;;;8.35;1.23;;;21.80;99.90;;;;;;5061067;28;20081;-61
2022/05/17 08:43:59;;;;;;;6.80;1.30;;;21.50;99.90;;;;;;5028004;28;20052;-60
2022/05/17 08:46:46;;;;;;;7.10;1.02;;;21.80;99.90;;;;;;5028146;28;20037;-61
2022/05/17 08:49:38;;;;;;;9.35;1.90;;;22.10;99.90;;;;;;5028937;28;20041;-61
2022/05/17 08:52:15;;;;;;;7.00;1.80;;;22.50;99.90;;;;;;5013305;28;20046;-62
2022/05/17 08:54:55;;;;;;;10.00;2.22;;;22.70;99.90;;;;;;5011403;28;20045;-61
2022/05/17 08:57:38;;;;;;;9.48;2.40;;;22.60;99.90;;;;;;5027644;28;20111;-62
2022/05/17 09:00:07;;;;;;;9.52;2.40;;;22.40;99.90;;;;;;5027687;28;20045;-61
2022/05/17 09:02:39;;;;;;;8.20;1.73;;;22.80;99.90;;;;;;5061171;28;20049;-61
2022/05/17 09:05:25;;;;;;;10.35;2.17;;;22.70;99.90;;;;;;5029012;28;20048;-61
2022/05/17 09:08:07;;;;;;;9.48;1.55;;;22.30;99.90;;;;;;5027658;28;20041;-62
2022/05/17 09:10:38;;;;;;;8.10;1.60;;;22.20;99.90;;;;;;5060931;28;20060;-61
2022/05/17 09:13:16;;;;;;;7.63;1.70;;;22.00;99.90;;;;;;5061229;28;20081;-61
2022/05/17 09:15:44;;;;;;;8.20;1.50;;;21.20;99.90;;;;;;5011191;28;20084;-61
2022/05/17 09:18:16;;;;;;;8.55;1.52;;;21.60;99.90;;;;;;5060743;28;20056;-61
2022/05/17 09:20:42;;;;;;;7.70;1.20;;;22.00;99.90;;;;;;5027499;28;20041;-61
2022/05/17 09:23:09;;;;;;;6.68;1.40;;;22.70;99.90;;;;;;5028753;28;20038;-61
2022/05/17 09:25:45;;;;;;;6.47;1.13;;;22.70;99.90;;;;;;5026563;28;20424;-61
2022/05/17 09:28:23;;;;;;;8.05;1.30;;;23.10;99.90;;;;;;5026446;28;20068;-61
2022/05/17 09:31:23;;;;;;;7.40;1.40;;;23.20;99.90;;;;;;5026494;28;20128;-62
2022/05/17 09:33:50;;;;;;;7.85;1.75;;;23.40;99.90;;;;;;5028004;28;20589;-61
2022/05/17 09:36:28;;;;;;;10.32;1.70;;;23.30;99.90;;;;;;5059963;28;20107;-61
2022/05/17 09:38:54;;;;;;;8.27;1.83;;;22.50;99.90;;;;;;5027839;28;20079;-61
2022/05/17 09:41:25;;;;;;;9.88;1.63;;;21.70;99.90;;;;;;5009526;28;20041;-61
2022/05/17 09:44:14;;;;;;;9.18;1.80;;;21.60;99.90;;;;;;5010216;28;20118;-61
2022/05/17 09:46:55;;;;;;;9.80;1.98;;;21.70;99.90;;;;;;5059515;28;20055;-62
2022/05/17 09:52:33;;;;;;;8.23;1.83;;;22.30;99.90;;;;;;5027497;28;20053;-62
2022/05/17 09:55:07;;;;;;;10.20;1.70;;;22.50;99.90;;;;;;5027340;28;20046;-62
2022/05/17 09:57:33;;;;;;;6.82;1.65;;;22.70;99.90;;;;;;5026930;28;20103;-60
2022/05/17 10:00:12;;;;;;;6.97;1.30;;;23.10;99.90;;;;;;5029944;28;20049;-62
2022/05/17 10:02:38;;;;;;;9.60;1.80;;;23.40;99.90;;;;;;5064445;28;20056;-61
2022/05/17 10:05:40;;;;;;;6.78;1.70;;;23.80;99.90;;;;;;5031036;28;20041;-61
2022/05/17 10:08:27;;;;;;;10.98;1.98;;;24.00;99.90;;;;;;5030722;28;20045;-61
2022/05/17 10:11:12;;;;;;;7.22;1.48;;;24.50;99.90;;;;;;5030466;28;20042;-61
2022/05/17 10:13:59;;;;;;;8.10;1.48;;;24.00;99.90;;;;;;5030582;28;20183;-61
2022/05/17 10:16:57;;;;;;;8.48;1.45;;;24.00;99.90;;;;;;5032062;28;20095;-61
2022/05/17 10:20:11;;;;;;;8.40;1.52;;;23.80;99.90;;;;;;5028596;28;20052;-61
2022/05/17 10:22:57;;;;;;;10.73;2.42;;;23.70;99.90;;;;;;5021630;28;20528;-62
2022/05/17 10:25:53;;;;;;;8.65;1.80;;;23.40;99.90;;;;;;5046903;28;20034;-61
2022/05/17 10:28:25;;;;;;;6.93;1.42;;;23.10;99.90;;;;;;5032186;28;20080;-61
2022/05/17 10:31:13;;;;;;;8.47;1.53;;;23.70;99.90;;;;;;5030554;28;20056;-61
2022/05/17 10:33:54;;;;;;;7.80;1.40;;;24.30;99.90;;;;;;5063541;28;20400;-61
2022/05/17 10:36:32;;;;;;;9.75;2.08;;;24.20;99.90;;;;;;5030830;28;20048;-62
2022/05/17 10:39:21;;;;;;;8.70;1.80;;;24.30;99.90;;;;;;5030736;28;20156;-62
2022/05/17 10:41:49;;;;;;;9.70;2.38;;;25.20;99.90;;;;;;5030109;28;20098;-62
2022/05/17 10:44:21;;;;;;;11.40;2.25;;;24.70;99.90;;;;;;5015176;28;20136;-62
2022/05/17 10:46:56;;;;;;;10.95;2.30;;;24.30;99.90;;;;;;5031594;28;20779;-62
2022/05/17 10:49:43;;;;;;;9.27;2.50;;;24.50;99.90;;;;;;5063368;28;20563;-62
2022/05/17 10:52:29;;;;;;;12.10;2.67;;;24.60;99.90;;;;;;5063176;28;20053;-62
2022/05/17 10:55:12;;;;;;;10.98;3.53;;;24.70;99.90;;;;;;5013542;28;20115;-62
2022/05/17 10:58:10;;;;;;;9.32;2.53;;;24.60;99.90;;;;;;5030205;28;20057;-61
2022/05/17 11:00:50;;;;;;;10.20;2.40;;;25.10;99.90;;;;;;5029974;28;20037;-62
2022/05/17 11:03:38;;;;;;;9.63;2.10;;;24.90;99.90;;;;;;5031314;28;20329;-61
2022/05/17 11:06:12;;;;;;;9.05;2.13;;;24.70;99.90;;;;;;5013251;28;20045;-62
2022/05/17 11:09:15;;;;;;;11.68;2.15;;;24.70;99.90;;;;;;5030569;28;20121;-61
2022/05/17 11:12:02;;;;;;;10.40;2.30;;;23.90;99.90;;;;;;5028036;28;20132;-62
2022/05/17 11:15:11;;;;;;;10.95;2.13;;;23.30;99.90;;;;;;5062337;28;20051;-61
2022/05/17 11:17:54;;;;;;;8.95;2.30;;;22.90;99.90;;;;;;5010262;28;20056;-62
2022/05/17 11:20:26;;;;;;;9.25;1.88;;;23.20;99.90;;;;;;5062234;28;20505;-62
2022/05/17 11:22:58;;;;;;;10.63;2.22;;;23.90;99.90;;;;;;5029637;28;20215;-62
2022/05/17 11:25:36;;;;;;;12.82;2.30;;;24.30;99.90;;;;;;5062525;28;20051;-62
2022/05/17 11:28:14;;;;;;;10.60;1.80;;;24.60;99.90;;;;;;5029536;28;20654;-62
2022/05/17 11:31:00;;;;;;;12.05;2.53;;;25.20;99.90;;;;;;5062655;28;20153;-62
2022/05/17 11:33:39;;;;;;;8.50;1.98;;;24.50;99.90;;;;;;5029304;28;20124;-61
2022/05/17 11:36:12;;;;;;;10.82;2.15;;;24.30;99.90;;;;;;5030970;28;20079;-62
2022/05/17 11:38:44;;;;;;;11.90;2.58;;;24.10;99.90;;;;;;5045867;28;20087;-61
2022/05/17 11:41:21;;;;;;;10.38;2.30;;;23.60;99.90;;;;;;5062224;28;20041;-61
2022/05/17 11:44:05;;;;;;;10.85;2.10;;;23.60;99.90;;;;;;5012539;28;20767;-61
2022/05/17 11:46:31;;;;;;;18.10;3.05;;;23.50;99.90;;;;;;5062198;28;20041;-61
2022/05/17 11:48:59;;;;;;;13.10;2.85;;;23.20;99.90;;;;;;5029287;28;20091;-60
2022/05/17 11:51:36;;;;;;;10.90;2.20;;;23.30;99.90;;;;;;5028662;28;20041;-60
2022/05/17 11:54:03;;;;;;;11.13;2.65;;;22.70;99.90;;;;;;5028920;28;20060;-61
2022/05/17 11:56:32;;;;;;;12.77;2.50;;;22.10;99.90;;;;;;5029028;28;20416;-61
2022/05/17 11:58:58;;;;;;;13.10;2.30;;;22.40;99.90;;;;;;5061970;28;20065;-61
2022/05/17 12:01:46;;;;;;;14.20;2.60;;;23.10;99.90;;;;;;5028872;28;20038;-61
2022/05/17 12:04:21;;;;;;;13.82;2.00;;;23.70;99.90;;;;;;5029005;28;20763;-61
2022/05/17 12:06:56;;;;;;;9.05;1.92;;;24.50;99.90;;;;;;5028546;28;20590;-61
2022/05/17 12:09:47;;;;;;;13.48;2.00;;;24.00;99.90;;;;;;5061874;28;20435;-62
2022/05/17 12:12:28;;;;;;;8.90;2.22;;;23.10;99.90;;;;;;5028407;28;20057;-60
2022/05/17 12:15:20;;;;;;;11.35;2.30;;;23.10;99.90;;;;;;5028554;28;20099;-60
2022/05/17 12:17:49;;;;;;;9.30;1.70;;;23.50;99.90;;;;;;5013708;28;20065;-62
2022/05/17 12:20:31;;;;;;;11.10;1.73;;;23.80;99.90;;;;;;5061655;28;20072;-61
2022/05/17 12:23:05;;;;;;;7.20;1.13;;;24.50;99.90;;;;;;5028402;28;20131;-62
2022/05/17 12:25:53;;;;;;;8.77;1.45;;;24.80;99.90;;;;;;5061564;28;20521;-61
2022/05/17 12:28:27;;;;;;;7.53;1.52;;;24.70;99.90;;;;;;5029721;28;20037;-62
2022/05/17 12:31:00;;;;;;;7.33;1.30;;;24.70;99.90;;;;;;5029595;28;20132;-61
2022/05/17 12:33:49;;;;;;;;;;;24.80;99.90;;;;;;5061408;28;20307;-62
2022/05/17 12:36:24;;;;;;;7.28;1.30;;;24.80;99.90;;;;;;5029615;28;20303;-62
2022/05/17 12:44:45;;;;;;;6.00;1.35;;;24.90;99.90;;;;;;5028075;28;20089;-62
2022/05/17 12:47:29;;;;;;;7.15;1.23;;;24.90;99.90;;;;;;5028227;28;20045;-62
2022/05/17 12:49:57;;;;;;;7.25;1.35;;;24.70;99.90;;;;;;5061536;28;20060;-62
2022/05/17 12:52:35;;;;;;;7.18;1.42;;;24.40;99.90;;;;;;5011904;28;20389;-62
2022/05/17 12:55:17;;;;;;;5.78;0.85;;;24.80;99.90;;;;;;5061140;28;20052;-62
2022/05/17 12:57:42;;;;;;;6.72;1.25;;;25.20;99.90;;;;;;5028082;28;20069;-61
2022/05/17 13:00:23;;;;;;;8.02;1.38;;;25.40;99.90;;;;;;5027890;28;20451;-61
2022/05/17 13:03:13;;;;;;;8.45;1.42;;;25.60;99.90;;;;;;5028188;28;20044;-61
2022/05/17 13:05:43;;;;;;;7.53;1.40;;;25.60;99.90;;;;;;5022488;28;20533;-61
2022/05/17 13:08:17;;;;;;;6.75;1.00;;;25.40;99.90;;;;;;5061210;28;20045;-61
2022/05/17 13:11:00;;;;;;;6.22;1.02;;;25.40;99.90;;;;;;5027459;28;20120;-61
2022/05/17 13:13:31;;;;;;;9.13;1.23;;;25.30;99.90;;;;;;5028791;28;20041;-61
2022/05/17 13:16:05;;;;;;;9.18;1.23;;;25.40;99.90;;;;;;5061378;28;20129;-61